Time;durP1;ratioP1;P1;durP2;ratioP2;P2;SDS_P1;SDS_P2;PMS_P1;PMS_P2;Temp;Humidity;BMP_temperature;BMP_pressure;BME280_temperature;BME280_humidity;BME280_pressure;Samples;Min_cycle;Max_cycle;Signal;HPM_P1;HPM_P2
2022/12/25 00:01:53;;;;;;;;;;;;;;;7.15;100.00;96628.13;5075660;28;19959;-74
2022/12/25 00:04:19;;;;;;;;;;;;;;;7.15;100.00;96637.75;5075177;28;20009;-74
2022/12/25 00:06:44;;;;;;;;;;;;;;;7.13;100.00;96637.94;5075196;28;19965;-74
2022/12/25 00:09:10;;;;;;;;;;;;;;;7.10;100.00;96630.50;5075207;28;19961;-74
2022/12/25 00:11:36;;;;;;;;;;;;;;;7.10;100.00;96639.13;5075525;28;19949;-74
2022/12/25 00:14:02;;;;;;;;;;;;;;;7.09;100.00;96637.50;5075323;28;19961;-75
2022/12/25 00:16:28;;;;;;;;;;;;;;;7.09;100.00;96637.50;5075163;28;19950;-74
2022/12/25 00:18:55;;;;;;;;;;;;;;;7.09;100.00;96636.69;5057008;28;19993;-74
2022/12/25 00:21:21;;;;;;;;;;;;;;;7.10;100.00;96640.94;5075031;28;19955;-74
2022/12/25 00:23:51;;;;;;;;;;;;;;;7.07;100.00;96634.28;5056700;28;19955;-74
2022/12/25 00:26:17;;;;;;;;;;;;;;;7.05;100.00;96627.66;5075615;28;19949;-74
2022/12/25 00:28:43;;;;;;;;;;;;;;;7.03;100.00;96621.81;5056723;28;19961;-74
2022/12/25 00:31:10;;;;;;;;;;;;;;;7.02;100.00;96625.44;5075129;28;19964;-74
2022/12/25 00:33:37;;;;;;;;;;;;;;;6.99;100.00;96629.22;5074445;28;19976;-74
2022/12/25 00:36:05;;;;;;;;;;;;;;;6.98;100.00;96630.22;5074511;28;19980;-74
2022/12/25 00:38:32;;;;;;;;;;;;;;;6.97;100.00;96625.19;5074675;28;20015;-74
2022/12/25 00:40:58;;;;;;;;;;;;;;;6.97;100.00;96630.41;5074154;28;20017;-74
2022/12/25 00:43:23;;;;;;;;;;;;;;;6.96;100.00;96627.00;5056849;28;20031;-74
2022/12/25 00:45:57;;;;;;;;;;;;;;;6.94;100.00;96623.78;5074579;28;19952;-75
2022/12/25 00:48:24;;;;;;;;;;;;;;;6.95;100.00;96629.78;5062360;28;19947;-74
2022/12/25 00:50:56;;;;;;;;;;;;;;;6.96;100.00;96626.19;5074269;28;19949;-74
2022/12/25 00:53:23;;;;;;;;;;;;;;;6.95;100.00;96619.34;5074567;28;19971;-74
2022/12/25 00:55:52;;;;;;;;;;;;;;;6.95;100.00;96621.97;5073022;28;19957;-74
2022/12/25 00:58:18;;;;;;;;;;;;;;;6.94;100.00;96618.56;5074386;28;19965;-74
2022/12/25 01:00:44;;;;;;;;;;;;;;;6.96;100.00;96623.59;5061009;28;19963;-73
2022/12/25 01:03:10;;;;;;;;;;;;;;;6.96;100.00;96626.19;5074070;28;19955;-73
2022/12/25 01:05:36;;;;;;;;;;;;;;;6.96;100.00;96620.97;5074133;28;20414;-74
2022/12/25 01:08:02;;;;;;;;;;;;;;;6.96;100.00;96632.22;5074269;28;20364;-74
2022/12/25 01:10:27;;;;;;;;;;;;;;;6.97;100.00;96633.84;5074570;28;20308;-73
2022/12/25 01:12:53;;;;;;;;;;;;;;;6.99;100.00;96629.22;5074156;28;20027;-74
2022/12/25 01:15:19;;;;;;;;;;;;;;;7.00;100.00;96630.03;5074120;28;20006;-74
2022/12/25 01:17:45;;;;;;;;;;;;;;;7.00;100.00;96636.06;5073908;28;20058;-74
2022/12/25 01:20:12;;;;;;;;;;;;;;;7.01;100.00;96631.63;5073723;28;19955;-74
2022/12/25 01:22:38;;;;;;;;;;;;;;;7.00;100.00;96630.84;5073819;28;20318;-74
2022/12/25 01:25:05;;;;;;;;;;;;;;;6.99;100.00;96634.44;5074053;28;19961;-74
2022/12/25 01:27:31;;;;;;;;;;;;;;;7.00;100.00;96633.44;5074206;28;19959;-74
2022/12/25 01:29:57;;;;;;;;;;;;;;;7.02;100.00;96635.88;5073683;28;19960;-74
2022/12/25 01:32:23;;;;;;;;;;;;;;;7.01;100.00;96632.44;5073289;28;20004;-73
2022/12/25 01:34:49;;;;;;;;;;;;;;;7.01;100.00;96632.44;5073546;28;19984;-74
2022/12/25 01:37:15;;;;;;;;;;;;;;;7.01;100.00;96639.44;5072550;28;19982;-73
2022/12/25 01:39:41;;;;;;;;;;;;;;;7.01;100.00;96627.22;5056192;28;20048;-73
2022/12/25 01:42:13;;;;;;;;;;;;;;;6.99;100.00;96637.06;5073543;28;20003;-74
2022/12/25 01:44:45;;;;;;;;;;;;;;;6.99;100.00;96637.06;5073238;28;19959;-73
2022/12/25 01:47:12;;;;;;;;;;;;;;;6.97;100.00;96633.00;5073561;28;19963;-73
2022/12/25 01:49:39;;;;;;;;;;;;;;;6.97;100.00;96626.00;5073592;28;19952;-74
2022/12/25 01:52:12;;;;;;;;;;;;;;;6.98;100.00;96632.03;5073623;28;19956;-73
2022/12/25 01:54:45;;;;;;;;;;;;;;;7.00;100.00;96624.81;5064265;28;19950;-73
2022/12/25 01:57:15;;;;;;;;;;;;;;;7.00;100.00;96633.44;5073684;28;19953;-73
2022/12/25 01:59:42;;;;;;;;;;;;;;;7.01;100.00;96619.38;5073233;28;19953;-73
2022/12/25 02:02:08;;;;;;;;;;;;;;;7.00;100.00;96622.22;5073488;28;20319;-74
2022/12/25 02:04:44;;;;;;;;;;;;;;;7.01;100.00;96626.41;5073588;28;19955;-74
2022/12/25 02:07:18;;;;;;;;;;;;;;;7.00;100.00;96620.41;5073537;28;19955;-73
2022/12/25 02:09:44;;;;;;;;;;;;;;;6.99;100.00;96610.97;5073446;28;19955;-74
2022/12/25 02:12:16;;;;;;;;;;;;;;;6.99;100.00;96617.97;5055208;28;19957;-74
2022/12/25 02:14:42;;;;;;;;;;;;;;;6.99;100.00;96617.97;5074008;28;20051;-73
2022/12/25 02:17:11;;;;;;;;;;;;;;;6.97;100.00;96623.41;5073265;28;19950;-73
2022/12/25 02:19:56;;;;;;;;;;;;;;;6.95;100.00;96619.34;5055313;28;19956;-74
2022/12/25 02:22:27;;;;;;;;;;;;;;;6.93;100.00;96616.97;5073159;28;19956;-73
2022/12/25 02:24:56;;;;;;;;;;;;;;;6.90;100.00;96610.31;5073227;28;19957;-74
2022/12/25 02:27:28;;;;;;;;;;;;;;;6.90;100.00;96609.50;5055674;28;19951;-74
2022/12/25 02:30:00;;;;;;;;;;;;;;;6.86;100.00;96601.25;5047695;28;19961;-73
2022/12/25 02:32:44;;;;;;;;;;;;;;;6.84;100.00;96612.88;5073111;28;19968;-74
2022/12/25 02:35:19;;;;;;;;;;;;;;;6.84;100.00;96612.88;5063050;28;19962;-74
2022/12/25 02:37:45;;;;;;;;;;;;;;;6.82;100.00;96618.25;5072925;28;20446;-74
2022/12/25 02:40:18;;;;;;;;;;;;;;;6.82;100.00;96612.25;5072660;28;19962;-74
2022/12/25 03:08:07;;;;;;;;;;;;;;;6.85;100.00;96604.88;5068262;28;20431;-73
2022/12/25 03:13:23;;;;;;;;;;;;;;;6.82;100.00;96586.19;5076233;28;20338;-73
2022/12/25 03:18:34;;;;;;;;;;;;;;;6.83;100.00;96586.00;5076254;28;19963;-74
2022/12/25 03:32:10;;;;;;;;;;;;;;;6.86;100.00;96572.56;5076157;28;19955;-74
2022/12/25 04:38:09;;;;;;;;;;;;;;;6.83;100.00;96559.13;5074799;28;19962;-74
2022/12/25 04:40:35;;;;;;;;;;;;;;;6.83;100.00;96559.94;5074779;28;19960;-74
2022/12/25 04:43:01;;;;;;;;;;;;;;;6.82;100.00;96552.28;5074747;28;19958;-74
2022/12/25 04:45:27;;;;;;;;;;;;;;;6.79;100.00;96548.28;5074558;28;20379;-73
2022/12/25 04:47:53;;;;;;;;;;;;;;;6.79;100.00;96544.88;5074370;28;20048;-73
2022/12/25 04:50:19;;;;;;;;;;;;;;;6.77;100.00;96546.88;5056425;28;20044;-74
2022/12/25 04:52:45;;;;;;;;;;;;;;;6.77;100.00;96554.69;5074414;28;19951;-74
2022/12/25 04:55:11;;;;;;;;;;;;;;;6.75;100.00;96554.06;5074254;28;19954;-73
2022/12/25 04:57:37;;;;;;;;;;;;;;;6.74;100.00;96550.66;5074101;28;19957;-73
2022/12/25 05:00:03;;;;;;;;;;;;;;;6.76;100.00;96550.44;5074323;28;19992;-73
2022/12/25 05:02:30;;;;;;;;;;;;;;;6.76;100.00;96545.25;5074218;28;19960;-73
2022/12/25 05:04:56;;;;;;;;;;;;;;;6.75;100.00;96541.84;5073719;28;19965;-74
2022/12/25 05:07:22;;;;;;;;;;;;;;;6.74;100.00;96536.81;5074146;28;19966;-73
2022/12/25 05:09:47;;;;;;;;;;;;;;;6.73;100.00;96537.81;5073907;28;19947;-73
2022/12/25 05:12:13;;;;;;;;;;;;;;;6.73;100.00;96546.44;5055788;28;20015;-73
2022/12/25 05:14:40;;;;;;;;;;;;;;;6.73;100.00;96541.22;5074074;28;20429;-73
2022/12/25 05:17:06;;;;;;;;;;;;;;;6.75;100.00;96536.63;5074046;28;19978;-73
2022/12/25 05:19:33;;;;;;;;;;;;;;;6.74;100.00;96539.41;5073937;28;19954;-74
2022/12/25 05:21:58;;;;;;;;;;;;;;;6.74;100.00;96545.44;5074002;28;19953;-73
2022/12/25 05:24:25;;;;;;;;;;;;;;;6.74;100.00;96542.00;5073787;28;19958;-73
2022/12/25 05:26:51;;;;;;;;;;;;;;;6.74;100.00;96539.41;5073776;28;19985;-73
2022/12/25 05:29:17;;;;;;;;;;;;;;;6.73;100.00;96538.63;5073968;28;20417;-73
2022/12/25 05:31:43;;;;;;;;;;;;;;;6.73;100.00;96527.38;5074018;28;19956;-73
2022/12/25 05:34:09;;;;;;;;;;;;;;;6.73;100.00;96522.97;5073593;28;20027;-73
2022/12/25 05:36:35;;;;;;;;;;;;;;;6.74;100.00;96534.19;5073823;28;19976;-73
2022/12/25 05:39:02;;;;;;;;;;;;;;;6.75;100.00;96522.78;5074367;28;19963;-73
2022/12/25 05:41:28;;;;;;;;;;;;;;;6.74;100.00;96516.78;5055716;28;20453;-73
2022/12/25 05:43:53;;;;;;;;;;;;;;;6.76;100.00;96520.00;5073707;28;19962;-73
2022/12/25 05:46:19;;;;;;;;;;;;;;;6.76;100.00;96514.78;5073957;28;19960;-73
2022/12/25 05:48:45;;;;;;;;;;;;;;;6.78;100.00;96517.97;5073569;28;19963;-74
2022/12/25 05:51:12;;;;;;;;;;;;;;;6.80;100.00;96508.16;5074023;28;20307;-74
2022/12/25 05:53:38;;;;;;;;;;;;;;;6.80;100.00;96504.75;5073751;28;20317;-73
2022/12/25 05:56:05;;;;;;;;;;;;;;;6.79;100.00;96511.78;5073711;28;19954;-73
2022/12/25 05:58:32;;;;;;;;;;;;;;;6.80;100.00;96509.97;5073876;28;19956;-74
2022/12/25 06:00:58;;;;;;;;;;;;;;;6.80;100.00;96520.41;5073729;28;20401;-73
2022/12/25 06:03:24;;;;;;;;;;;;;;;6.80;100.00;96516.00;5073463;28;19942;-74
2022/12/25 06:05:50;;;;;;;;;;;;;;;6.81;100.00;96516.81;5073486;28;19956;-74
2022/12/25 06:08:16;;;;;;;;;;;;;;;6.80;100.00;96516.00;5073490;28;19950;-73
2022/12/25 06:10:42;;;;;;;;;;;;;;;6.81;100.00;96512.41;5073271;28;19944;-74
2022/12/25 06:13:08;;;;;;;;;;;;;;;6.82;100.00;96510.59;5073485;28;19969;-73
2022/12/25 06:15:37;;;;;;;;;;;;;;;6.80;100.00;96505.56;5073406;28;19956;-73
2022/12/25 06:18:02;;;;;;;;;;;;;;;6.81;100.00;96503.78;5073363;28;20282;-73
2022/12/25 06:20:29;;;;;;;;;;;;;;;6.81;100.00;96504.56;5073205;28;19961;-74
2022/12/25 06:22:54;;;;;;;;;;;;;;;6.81;100.00;96503.78;5075895;28;19965;-73
2022/12/25 06:25:20;;;;;;;;;;;;;;;6.79;100.00;96497.97;5077414;28;20408;-73
2022/12/25 06:27:46;;;;;;;;;;;;;;;6.77;100.00;96495.53;5077410;28;20363;-73
2022/12/25 06:30:12;;;;;;;;;;;;;;;6.77;100.00;96498.13;5076983;28;20006;-73
2022/12/25 06:32:38;;;;;;;;;;;;;;;6.76;100.00;96508.75;5059136;28;19949;-73
2022/12/25 06:35:04;;;;;;;;;;;;;;;6.75;100.00;96509.75;5077541;28;20010;-73
2022/12/25 06:37:30;;;;;;;;;;;;;;;6.72;100.00;96510.97;5058865;28;20436;-73
2022/12/25 06:39:56;;;;;;;;;;;;;;;6.70;100.00;96492.91;5077315;28;19965;-73
2022/12/25 06:42:22;;;;;;;;;;;;;;;6.69;100.00;96509.50;5077372;28;19954;-73
2022/12/25 06:44:49;;;;;;;;;;;;;;;6.67;100.00;96503.69;5076961;28;20001;-73
2022/12/25 06:47:16;;;;;;;;;;;;;;;6.67;100.00;96513.31;5076949;28;19955;-73
2022/12/25 06:49:41;;;;;;;;;;;;;;;6.64;100.00;96508.50;5076033;28;19958;-73
2022/12/25 06:52:07;;;;;;;;;;;;;;;6.60;100.00;96505.47;5076695;28;19954;-73
2022/12/25 06:54:33;;;;;;;;;;;;;;;6.56;100.00;96513.84;5076645;28;19969;-73
2022/12/25 06:56:59;;;;;;;;;;;;;;;6.53;100.00;96514.22;5076034;28;19959;-74
2022/12/25 06:59:25;;;;;;;;;;;;;;;6.47;100.00;96515.81;5076571;28;19958;-73
2022/12/25 07:01:52;;;;;;;;;;;;;;;6.39;100.00;96513.34;5076400;28;19962;-73
2022/12/25 07:04:35;;;;;;;;;;;;;;;6.35;100.00;96512.09;5077026;28;19951;-73
2022/12/25 07:07:02;;;;;;;;;;;;;;;6.30;100.00;96515.28;5067256;28;19960;-73
2022/12/25 07:09:27;;;;;;;;;;;;;;;6.28;100.00;96509.47;5076336;28;19967;-73
2022/12/25 07:11:53;;;;;;;;;;;;;;;6.25;100.00;96510.63;5076540;28;20387;-73
2022/12/25 07:14:20;;;;;;;;;;;;;;;6.27;100.00;96510.44;5058414;28;19972;-73
2022/12/25 07:16:46;;;;;;;;;;;;;;;6.29;100.00;96501.44;5076312;28;19970;-74
2022/12/25 07:19:12;;;;;;;;;;;;;;;6.30;100.00;96494.44;5076107;28;20390;-73
2022/12/25 07:21:38;;;;;;;;;;;;;;;6.33;100.00;96496.66;5075746;28;20305;-73
2022/12/25 07:24:04;;;;;;;;;;;;;;;6.37;100.00;96507.50;5076098;28;19953;-73
2022/12/25 07:26:30;;;;;;;;;;;;;;;6.38;100.00;96493.47;5076077;28;19952;-73
2022/12/25 07:28:56;;;;;;;;;;;;;;;6.42;100.00;96495.50;5076307;28;19957;-73
2022/12/25 07:31:22;;;;;;;;;;;;;;;6.44;100.00;96493.53;5076114;28;20005;-73
2022/12/25 07:33:51;;;;;;;;;;;;;;;6.46;100.00;96494.13;5075242;28;19967;-73
2022/12/25 07:36:17;;;;;;;;;;;;;;;6.50;100.00;96494.56;5076465;28;19980;-73
2022/12/25 07:38:47;;;;;;;;;;;;;;;6.50;100.00;96484.94;5075858;28;19970;-73
2022/12/25 07:41:12;;;;;;;;;;;;;;;6.54;100.00;96480.16;5075968;28;19963;-73
2022/12/25 07:43:39;;;;;;;;;;;;;;;6.55;100.00;96479.19;5075624;28;19950;-73
2022/12/25 07:46:05;;;;;;;;;;;;;;;6.57;100.00;96479.78;5075748;28;20319;-75
2022/12/25 07:48:31;;;;;;;;;;;;;;;6.58;100.00;96480.59;5076082;28;20318;-73
2022/12/25 07:51:01;;;;;;;;;;;;;;;6.59;100.00;96488.19;5075609;28;20007;-73
2022/12/25 07:53:27;;;;;;;;;;;;;;;6.60;100.00;96484.63;5075574;28;19970;-73
2022/12/25 07:56:00;;;;;;;;;;;;;;;6.64;100.00;96487.66;5075665;28;19948;-73
2022/12/25 07:58:26;;;;;;;;;;;;;;;6.65;100.00;96484.03;5075467;28;19961;-73
2022/12/25 08:00:52;;;;;;;;;;;;;;;6.71;100.00;96480.66;5075688;28;20320;-73
2022/12/25 08:03:18;;;;;;;;;;;;;;;6.79;100.00;96495.34;5075770;28;19999;-74
2022/12/25 08:05:44;;;;;;;;;;;;;;;6.90;100.00;96485.16;5075119;28;19964;-73
2022/12/25 08:08:10;;;;;;;;;;;;;;;6.99;100.00;96487.59;5075482;28;19957;-74
2022/12/25 08:10:36;;;;;;;;;;;;;;;7.01;100.00;96496.84;5075393;28;20323;-74
2022/12/25 08:13:02;;;;;;;;;;;;;;;7.05;100.00;96502.47;5075077;28;19954;-74
2022/12/25 08:15:29;;;;;;;;;;;;;;;7.08;100.00;96505.53;5075675;28;20086;-73
2022/12/25 08:17:55;;;;;;;;;;;;;;;7.13;100.00;96504.94;5075399;28;19956;-73
2022/12/25 08:20:20;;;;;;;;;;;;;;;7.18;100.00;96491.31;5074991;28;19946;-73
2022/12/25 08:22:46;;;;;;;;;;;;;;;7.23;100.00;96499.38;5075019;28;19956;-73
2022/12/25 08:25:14;;;;;;;;;;;;;;;7.29;100.00;96490.75;5074859;28;19959;-74
2022/12/25 08:27:40;;;;;;;;;;;;;;;7.44;100.00;96498.44;5075166;28;19950;-74
2022/12/25 08:30:06;;;;;;;;;;;;;;;7.66;100.00;96505.09;5074876;28;19988;-73
2022/12/25 08:32:32;;;;;;;;;;;;;;;7.85;100.00;96493.09;5074586;28;19952;-75
2022/12/25 08:34:58;;;;;;;;;;;;;;;8.01;100.00;96502.34;5074782;28;19968;-73
2022/12/25 08:37:24;;;;;;;;;;;;;;;8.09;100.00;96509.19;5074958;28;19983;-73
2022/12/25 08:39:50;;;;;;;;;;;;;;;8.14;100.00;96512.78;5074466;28;20003;-74
2022/12/25 08:42:16;;;;;;;;;;;;;;;8.19;100.00;96508.75;5074634;28;20491;-73
2022/12/25 08:44:42;;;;;;;;;;;;;;;8.26;100.00;96506.97;5056530;28;20010;-74
2022/12/25 08:47:08;;;;;;;;;;;;;;;8.36;100.00;96503.94;5056086;28;19997;-73
2022/12/25 08:49:33;;;;;;;;;;;;;;;8.37;100.00;96492.50;5074436;28;19988;-74
2022/12/25 08:51:59;;;;;;;;;;;;;;;8.41;100.00;96485.88;5074240;28;20442;-74
2022/12/25 08:54:25;;;;;;;;;;;;;;;8.48;100.00;96478.81;5074254;28;19972;-73
2022/12/25 08:56:51;;;;;;;;;;;;;;;8.55;100.00;96463.97;5074355;28;20000;-74
2022/12/25 08:59:17;;;;;;;;;;;;;;;8.65;100.00;96453.88;5074560;28;20398;-74
2022/12/25 09:01:43;;;;;;;;;;;;;;;8.79;100.00;96459.84;5074189;28;19960;-73
2022/12/25 09:04:09;;;;;;;;;;;;;;;8.90;100.00;96451.41;5074478;28;20464;-74
2022/12/25 09:06:34;;;;;;;;;;;;;;;9.06;100.00;96450.09;5074560;28;20012;-74
2022/12/25 09:09:00;;;;;;;;;;;;;;;9.23;100.00;96453.06;5073912;28;19953;-74
2022/12/25 09:11:26;;;;;;;;;;;;;;;9.38;100.00;96458.00;5074006;28;19962;-74
2022/12/25 09:13:52;;;;;;;;;;;;;;;9.53;100.00;96466.41;5074056;28;20063;-74
2022/12/25 09:16:20;;;;;;;;;;;;;;;9.61;100.00;96470.56;5056060;28;20007;-73
2022/12/25 09:18:46;;;;;;;;;;;;;;;9.64;100.00;96459.69;5073943;28;19950;-74
2022/12/25 09:21:13;;;;;;;;;;;;;;;9.66;100.00;96459.44;5073984;28;20330;-75
2022/12/25 09:23:38;;;;;;;;;;;;;;;9.75;100.00;96459.00;5073803;28;19966;-74
2022/12/25 09:26:05;;;;;;;;;;;;;;;9.89;100.00;96458.88;5073943;28;20370;-74
2022/12/25 09:28:31;;;;;;;;;;;;;;;10.03;100.00;96451.75;5074095;28;19962;-74
2022/12/25 09:30:57;;;;;;;;;;;;;;;10.18;100.00;96464.53;5073778;28;19963;-74
2022/12/25 09:33:23;;;;;;;;;;;;;;;10.31;100.00;96456.56;5073885;28;19953;-74
2022/12/25 09:36:07;;;;;;;;;;;;;;;10.42;100.00;96457.69;5073342;28;19971;-74
2022/12/25 09:38:34;;;;;;;;;;;;;;;10.50;100.00;96460.84;5074134;28;19977;-73
2022/12/25 09:41:18;;;;;;;;;;;;;;;10.60;100.00;96457.69;5074092;28;19961;-74
2022/12/25 09:43:47;;;;;;;;;;;;;;;10.68;100.00;96472.34;5073768;28;19955;-73
2022/12/25 09:46:15;;;;;;;;;;;;;;;10.79;100.00;96468.22;5073507;28;19954;-74
2022/12/25 09:48:44;;;;;;;;;;;;;;;10.81;100.00;96459.09;5073641;28;19947;-73
2022/12/25 09:51:13;;;;;;;;;;;;;;;10.92;100.00;96476.75;5073443;28;20423;-74
2022/12/25 09:53:42;;;;;;;;;;;;;;;11.02;100.00;96470.19;5073431;28;19952;-74
2022/12/25 09:56:10;;;;;;;;;;;;;;;11.06;100.00;96456.38;5073435;28;19957;-73
2022/12/25 09:58:36;;;;;;;;;;;;;;;11.08;100.00;96461.41;5073804;28;19956;-73
2022/12/25 10:01:14;;;;;;;;;;;;;;;11.07;100.00;96447.50;5073358;28;19959;-73
2022/12/25 10:03:58;;;;;;;;;;;;;;;11.05;100.00;96454.78;5073629;28;19950;-73
2022/12/25 10:06:47;;;;;;;;;;;;;;;11.14;100.00;96461.34;5073686;28;19953;-73
2022/12/25 10:09:19;;;;;;;;;;;;;;;11.28;100.00;96440.97;5065283;28;20313;-74
2022/12/25 10:11:45;;;;;;;;;;;;;;;11.47;100.00;96449.63;5055769;28;19961;-74
2022/12/25 10:14:20;;;;;;;;;;;;;;;11.63;100.00;96442.13;5055728;28;19966;-74
2022/12/25 10:16:52;;;;;;;;;;;;;;;11.68;100.00;96445.69;5073199;28;19948;-73
2022/12/25 10:19:18;;;;;;;;;;;;;;;11.75;100.00;96442.97;5073339;28;19956;-74
2022/12/25 10:21:45;;;;;;;;;;;;;;;11.71;100.00;96418.94;5073346;28;19964;-74
2022/12/25 10:24:29;;;;;;;;;;;;;;;11.53;100.00;96419.84;5073666;28;19960;-73
2022/12/25 10:26:55;;;;;;;;;;;;;;;11.45;100.00;96420.16;5060003;28;20330;-74
2022/12/25 10:29:21;;;;;;;;;;;;;;;11.45;100.00;96425.41;5073211;28;19954;-73
2022/12/25 10:31:48;;;;;;;;;;;;;;;11.50;100.00;96429.97;5073277;28;19960;-74
2022/12/25 10:34:15;;;;;;;;;;;;;;;11.55;100.00;96417.78;5073165;28;19971;-74
2022/12/25 10:36:42;;;;;;;;;;;;;;;11.66;100.00;96412.78;5073112;28;19987;-73
2022/12/25 10:39:19;;;;;;;;;;;;;;;11.75;100.00;96414.06;5073180;28;19966;-74
2022/12/25 10:42:09;;;;;;;;;;;;;;;11.86;100.00;96415.09;5073108;28;20416;-74
2022/12/25 10:44:35;;;;;;;;;;;;;;;11.89;100.00;96399.72;5073180;28;19950;-74
2022/12/25 10:47:02;;;;;;;;;;;;;;;11.88;100.00;96386.78;5073210;28;19956;-74
2022/12/25 10:49:29;;;;;;;;;;;;;;;11.85;100.00;96385.41;5073181;28;19948;-74
2022/12/25 10:51:55;;;;;;;;;;;;;;;11.78;100.00;96397.84;5055175;28;19941;-73
2022/12/25 10:54:24;;;;;;;;;;;;;;;11.70;100.00;96393.72;5072314;28;20048;-74
2022/12/25 10:57:08;;;;;;;;;;;;;;;11.61;100.00;96394.25;5073000;28;20417;-74
2022/12/25 10:59:40;;;;;;;;;;;;;;;11.56;100.00;96381.81;5073226;28;19954;-74
2022/12/25 11:02:26;;;;;;;;;;;;;;;11.58;100.00;96396.31;5072849;28;19957;-74
2022/12/25 11:05:18;;;;;;;;;;;;;;;11.58;100.00;96393.69;5073186;28;20327;-73
2022/12/25 11:07:54;;;;;;;;;;;;;;;11.69;100.00;96381.59;5041907;28;19973;-73
2022/12/25 11:10:20;;;;;;;;;;;;;;;11.90;100.00;96371.59;5076099;28;19950;-73
2022/12/25 11:12:46;;;;;;;;;;;;;;;11.99;100.00;96362.38;5076491;28;19952;-73
2022/12/25 11:15:31;;;;;;;;;;;;;;;11.96;100.00;96376.75;5058614;28;19976;-73
2022/12/25 11:17:57;;;;;;;;;;;;;;;11.91;100.00;96376.63;5076397;28;20322;-73
2022/12/25 11:20:23;;;;;;;;;;;;;;;11.94;100.00;96367.50;5076339;28;20030;-74
2022/12/25 11:22:49;;;;;;;;;;;;;;;11.98;100.00;96363.38;5076047;28;19959;-74
2022/12/25 11:25:25;;;;;;;;;;;;;;;11.93;100.00;96358.81;5076303;28;19956;-73
2022/12/25 11:27:59;;;;;;;;;;;;;;;11.88;100.00;96371.81;5076538;28;20285;-73
2022/12/25 11:30:25;;;;;;;;;;;;;;;11.94;100.00;96363.03;5065834;28;19965;-73
2022/12/25 11:32:54;;;;;;;;;;;;;;;11.93;100.00;96350.16;5075898;28;19966;-73
2022/12/25 11:35:23;;;;;;;;;;;;;;;11.97;100.00;96354.72;5075836;28;19968;-73
2022/12/25 11:37:50;;;;;;;;;;;;;;;12.06;100.00;96351.75;5076301;28;19996;-73
2022/12/25 11:40:19;;;;;;;;;;;;;;;12.14;100.00;96346.13;5076037;28;19957;-73
2022/12/25 11:42:53;;;;;;;;;;;;;;;12.11;100.00;96338.69;5076108;28;19955;-73
2022/12/25 11:45:37;;;;;;;;;;;;;;;12.13;100.00;96344.53;5075947;28;20417;-73
2022/12/25 11:48:11;;;;;;;;;;;;;;;12.15;100.00;96337.22;5075844;28;20324;-73
2022/12/25 11:50:40;;;;;;;;;;;;;;;12.16;100.00;96315.94;5058162;28;19947;-73
2022/12/25 11:53:12;;;;;;;;;;;;;;;12.18;100.00;96329.66;5075679;28;19957;-76
2022/12/25 11:55:47;;;;;;;;;;;;;;;12.19;100.00;96310.22;5064616;28;19960;-73
2022/12/25 11:58:20;;;;;;;;;;;;;;;12.22;100.00;96311.63;5075358;28;19962;-73
2022/12/25 12:00:47;;;;;;;;;;;;;;;12.27;100.00;96293.31;5076113;28;20322;-73
2022/12/25 12:03:17;;;;;;;;;;;;;;;12.28;100.00;96294.09;5074852;28;19952;-73
2022/12/25 12:05:56;;;;;;;;;;;;;;;12.29;100.00;96301.75;5075397;28;19950;-73
2022/12/25 12:08:22;;;;;;;;;;;;;;;12.34;100.00;96291.31;5075967;28;19961;-73
2022/12/25 12:10:56;;;;;;;;;;;;;;;12.38;100.00;96289.84;5075377;28;20353;-73
2022/12/25 12:13:32;;;;;;;;;;;;;;;12.41;100.00;96272.81;5075404;28;19948;-73
2022/12/25 12:15:58;;;;;;;;;;;;;;;12.45;100.00;96275.75;5075685;28;20334;-73
2022/12/25 12:18:26;;;;;;;;;;;;;;;12.46;100.00;96274.72;5075156;28;20330;-73
2022/12/25 12:21:00;;;;;;;;;;;;;;;12.48;100.00;96270.84;5075050;28;19959;-73
2022/12/25 12:23:27;;;;;;;;;;;;;;;12.49;97.41;96242.69;5075022;28;19938;-73
2022/12/25 12:25:53;;;;;;;;;;;;;;;12.53;99.75;96262.25;5074928;28;19950;-73
2022/12/25 12:28:21;;;;;;;;;;;;;;;12.54;98.66;96262.00;5075429;28;20381;-73
2022/12/25 12:31:04;;;;;;;;;;;;;;;12.56;99.75;96269.69;5075008;28;20412;-73
2022/12/25 12:33:33;;;;;;;;;;;;;;;12.57;100.00;96277.31;5060394;28;19952;-73
2022/12/25 12:36:00;;;;;;;;;;;;;;;12.56;99.09;96267.03;5074500;28;20519;-73
2022/12/25 12:38:27;;;;;;;;;;;;;;;12.56;98.39;96262.56;5075005;28;20319;-73
2022/12/25 12:40:56;;;;;;;;;;;;;;;12.58;99.40;96262.34;5074922;28;19963;-73
2022/12/25 12:43:34;;;;;;;;;;;;;;;12.62;100.00;96270.53;5074547;28;19948;-73
2022/12/25 12:46:03;;;;;;;;;;;;;;;12.68;97.63;96254.66;5074807;28;19953;-73
2022/12/25 12:48:35;;;;;;;;;;;;;;;12.76;100.00;96264.75;5074481;28;19957;-73
2022/12/25 12:51:03;;;;;;;;;;;;;;;12.84;99.81;96255.69;5074900;28;19958;-73
2022/12/25 12:53:30;;;;;;;;;;;;;;;12.92;99.64;96251.91;5074608;28;19960;-74
2022/12/25 12:56:07;;;;;;;;;;;;;;;12.92;96.85;96251.91;5074378;28;19960;-74
2022/12/25 12:58:34;;;;;;;;;;;;;;;12.94;97.41;96250.63;5060652;28;20336;-73
2022/12/25 13:01:06;;;;;;;;;;;;;;;12.96;99.38;96261.69;5074339;28;19955;-74
2022/12/25 13:03:41;;;;;;;;;;;;;;;12.99;99.08;96249.91;5040123;28;19957;-73
2022/12/25 13:06:19;;;;;;;;;;;;;;;13.02;98.79;96235.44;5074136;28;19957;-75
2022/12/25 13:08:57;;;;;;;;;;;;;;;12.99;96.59;96226.22;5056460;28;19961;-73
2022/12/25 13:11:24;;;;;;;;;;;;;;;12.95;98.00;96236.41;5074328;28;20424;-73
2022/12/25 13:13:52;;;;;;;;;;;;;;;12.93;96.25;96235.84;5074228;28;20330;-73
2022/12/25 13:16:35;;;;;;;;;;;;;;;12.91;97.70;96239.75;5073928;28;19973;-74
2022/12/25 13:19:06;;;;;;;;;;;;;;;12.91;98.36;96255.53;5073838;28;19959;-74
2022/12/25 13:21:32;;;;;;;;;;;;;;;12.89;98.38;96253.16;5074381;28;19951;-74
2022/12/25 13:24:00;;;;;;;;;;;;;;;12.88;98.53;96243.66;5073807;28;19961;-74
2022/12/25 13:26:26;;;;;;;;;;;;;;;12.92;100.00;96252.69;5073874;28;19949;-73
2022/12/25 13:28:54;;;;;;;;;;;;;;;12.94;99.76;96247.19;5074084;28;19957;-73
2022/12/25 13:31:22;;;;;;;;;;;;;;;12.92;98.09;96242.16;5073077;28;19983;-73
2022/12/25 13:33:53;;;;;;;;;;;;;;;12.90;100.00;96249.50;5073972;28;20312;-73
2022/12/25 13:36:19;;;;;;;;;;;;;;;12.92;100.00;96265.06;5074091;28;19972;-73
2022/12/25 13:38:46;;;;;;;;;;;;;;;12.90;100.00;96244.22;5073763;28;19966;-73
2022/12/25 13:44:01;;;;;;;;;;;;;;;12.88;100.00;96258.66;5062409;28;19949;-73
2022/12/25 13:46:28;;;;;;;;;;;;;;;12.84;100.00;96250.44;5073499;28;19953;-73
2022/12/25 13:48:59;;;;;;;;;;;;;;;12.83;100.00;96258.56;5073478;28;20405;-73
2022/12/25 13:51:25;;;;;;;;;;;;;;;12.78;100.00;96267.97;5073759;28;19955;-73
2022/12/25 13:54:01;;;;;;;;;;;;;;;12.75;100.00;96251.88;5073440;28;19958;-73
2022/12/25 13:56:27;;;;;;;;;;;;;;;12.72;100.00;96245.22;5073546;28;19961;-73
2022/12/25 13:58:53;;;;;;;;;;;;;;;12.70;100.00;96246.50;5073565;28;20033;-73
2022/12/25 14:01:18;;;;;;;;;;;;;;;12.66;100.00;96240.09;5073622;28;20402;-73
2022/12/25 14:03:45;;;;;;;;;;;;;;;12.61;100.00;96240.03;5073066;28;19959;-73
2022/12/25 14:06:14;;;;;;;;;;;;;;;12.59;100.00;96250.78;5073720;28;19953;-73
2022/12/25 14:08:41;;;;;;;;;;;;;;;12.57;100.00;96252.84;5073368;28;19956;-73
2022/12/25 14:11:07;;;;;;;;;;;;;;;12.54;100.00;96253.31;5073669;28;19963;-73
2022/12/25 14:13:39;;;;;;;;;;;;;;;12.51;100.00;96251.16;5073399;28;20402;-73
2022/12/25 14:16:05;;;;;;;;;;;;;;;12.47;100.00;96248.19;5073225;28;19973;-73
2022/12/25 14:18:31;;;;;;;;;;;;;;;12.46;100.00;96251.06;5073393;28;19956;-74
2022/12/25 14:21:04;;;;;;;;;;;;;;;12.43;100.00;96254.16;5073267;28;19948;-73
2022/12/25 14:23:44;;;;;;;;;;;;;;;12.42;100.00;96257.81;5073097;28;19948;-73
2022/12/25 14:26:17;;;;;;;;;;;;;;;12.36;100.00;96251.66;5073316;28;19946;-73
2022/12/25 14:28:51;;;;;;;;;;;;;;;12.34;100.00;96248.47;5073285;28;20310;-73
2022/12/25 14:31:17;;;;;;;;;;;;;;;12.29;100.00;96248.38;5073357;28;19954;-73
2022/12/25 14:33:44;;;;;;;;;;;;;;;12.27;100.00;96263.59;5073283;28;19962;-73
2022/12/25 14:36:12;;;;;;;;;;;;;;;12.22;100.00;96245.06;5072913;28;19980;-73
2022/12/25 14:38:40;;;;;;;;;;;;;;;12.19;100.00;96262.91;5073244;28;20408;-73